Time;durP1;ratioP1;P1;durP2;ratioP2;P2;SDS_P1;SDS_P2;PMS_P1;PMS_P2;Temp;Humidity;BMP_temperature;BMP_pressure;BME280_temperature;BME280_humidity;BME280_pressure;Samples;Min_cycle;Max_cycle;Signal;HPM_P1;HPM_P2
2023/12/05 00:02:09;;;;;;;0.50;0.50;;;;;;;4.00;100.00;100181.97;5073087;28;20245;-72
2023/12/05 00:04:37;;;;;;;0.80;0.80;;;;;;;4.15;100.00;100204.06;5075439;28;20640;-72
2023/12/05 00:07:04;;;;;;;0.57;0.57;;;;;;;4.16;100.00;100206.63;5072576;28;20212;-72
2023/12/05 00:09:31;;;;;;;0.70;0.70;;;;;;;4.23;100.00;100208.38;5072734;28;20737;-73
2023/12/05 00:11:58;;;;;;;0.80;0.80;;;;;;;4.20;100.00;100205.81;5072547;28;20207;-72
2023/12/05 00:14:24;;;;;;;0.60;0.60;;;;;;;4.22;100.00;100214.28;5073222;28;20254;-71
2023/12/05 00:16:51;;;;;;;0.53;0.53;;;;;;;4.26;100.00;100224.47;5072909;28;20569;-72
2023/12/05 00:19:18;;;;;;;0.50;0.50;;;;;;;4.28;100.00;100215.16;5072748;28;20208;-72
2023/12/05 00:21:46;;;;;;;0.50;0.50;;;;;;;4.36;100.00;100221.19;5072545;28;20250;-71
2023/12/05 00:24:12;;;;;;;0.60;0.60;;;;;;;4.37;100.00;100220.31;5072467;28;20230;-72
2023/12/05 00:26:39;;;;;;;0.70;0.70;;;;;;;4.41;100.00;100227.13;5072880;28;20614;-71
2023/12/05 00:29:06;;;;;;;0.60;0.60;;;;;;;4.47;100.00;100222.09;5070642;28;20200;-72
2023/12/05 00:31:33;;;;;;;1.27;1.17;;;;;;;4.52;100.00;100225.53;5069792;28;20257;-72
2023/12/05 00:33:59;;;;;;;0.80;0.80;;;;;;;4.50;100.00;100217.03;5072465;28;20265;-72
2023/12/05 00:36:26;;;;;;;0.87;0.87;;;;;;;4.49;100.00;100205.19;5072194;28;20253;-72
2023/12/05 00:38:54;;;;;;;0.43;0.43;;;;;;;4.53;100.00;100214.50;5071891;28;20208;-71
2023/12/05 00:41:21;;;;;;;0.50;0.50;;;;;;;4.48;100.00;100206.03;5072091;28;20200;-72
2023/12/05 00:43:47;;;;;;;0.63;0.63;;;;;;;4.47;100.00;100199.25;5072435;28;20196;-72
2023/12/05 00:46:14;;;;;;;0.87;0.87;;;;;;;4.48;100.00;100208.56;5071246;28;20636;-72
2023/12/05 00:48:41;;;;;;;0.60;0.60;;;;;;;4.46;100.00;100205.19;5073198;28;20192;-71
2023/12/05 00:51:08;;;;;;;0.70;0.70;;;;;;;4.46;100.00;100202.63;5072114;28;20731;-72
2023/12/05 00:53:35;;;;;;;0.73;0.73;;;;;;;4.38;100.00;100202.56;5071757;28;20199;-71
2023/12/05 00:56:03;;;;;;;0.50;0.50;;;;;;;4.46;100.00;100197.56;5071985;28;20204;-72
2023/12/05 00:58:29;;;;;;;0.50;0.50;;;;;;;4.43;100.00;100192.44;5072413;28;20214;-72
2023/12/05 01:00:56;;;;;;;0.40;0.40;;;;;;;4.43;100.00;100179.75;5071516;28;20228;-72
2023/12/05 01:03:23;;;;;;;0.60;0.60;;;;;;;4.37;100.00;100179.69;5071952;28;20258;-72
2023/12/05 01:05:49;;;;;;;0.83;0.83;;;;;;;4.30;100.00;100183.06;5071592;28;20203;-71
2023/12/05 01:08:16;;;;;;;0.60;0.60;;;;;;;4.23;100.00;100157.59;5071612;28;20668;-72
2023/12/05 01:10:43;;;;;;;0.90;0.90;;;;;;;4.28;100.00;100172.03;5070466;28;20192;-72
2023/12/05 01:13:11;;;;;;;0.60;0.60;;;;;;;4.28;100.00;100166.94;5071789;28;20261;-72
2023/12/05 01:15:38;;;;;;;0.60;0.60;;;;;;;4.23;100.00;100167.75;5071442;28;20204;-72
2023/12/05 01:18:04;;;;;;;0.87;0.87;;;;;;;4.23;100.00;100160.16;5071725;28;20333;-72
2023/12/05 01:20:31;;;;;;;0.67;0.50;;;;;;;4.28;100.00;100156.81;5071370;28;20688;-72
2023/12/05 01:22:58;;;;;;;0.93;0.93;;;;;;;4.14;100.00;100152.47;5071768;28;20204;-70
2023/12/05 01:25:25;;;;;;;0.50;0.50;;;;;;;4.16;100.00;100142.34;5071665;28;20630;-71
2023/12/05 01:27:52;;;;;;;0.57;0.57;;;;;;;4.18;100.00;100146.59;5071358;28;20196;-72
2023/12/05 01:30:20;;;;;;;0.63;0.63;;;;;;;4.24;100.00;100149.16;5071461;28;20204;-71
2023/12/05 01:32:47;;;;;;;0.60;0.60;;;;;;;4.25;100.00;100150.03;5071125;28;20246;-72
2023/12/05 01:35:13;;;;;;;0.50;0.50;;;;;;;4.35;100.00;100151.78;5071343;28;20200;-71
2023/12/05 01:37:40;;;;;;;0.63;0.63;;;;;;;4.47;100.00;100149.31;5071142;28;20257;-72
2023/12/05 01:40:09;;;;;;;0.60;0.60;;;;;;;4.57;100.00;100140.06;5071048;28;20212;-70
2023/12/05 01:42:36;;;;;;;0.70;0.70;;;;;;;4.56;100.00;100135.81;5071800;28;20287;-72
2023/12/05 01:45:04;;;;;;;0.60;0.60;;;;;;;4.43;100.00;100128.97;5071349;28;20664;-72
2023/12/05 01:47:35;;;;;;;0.83;0.83;;;;;;;4.44;100.00;100120.53;5070787;28;20196;-72
2023/12/05 01:50:02;;;;;;;0.60;0.60;;;;;;;4.28;100.00;100109.44;5070866;28;20239;-71
2023/12/05 01:52:29;;;;;;;0.80;0.80;;;;;;;4.52;100.00;100129.06;5071326;28;20265;-71
2023/12/05 01:54:57;;;;;;;0.60;0.60;;;;;;;4.52;100.00;100116.34;5070987;28;20200;-71
2023/12/05 01:57:24;;;;;;;0.70;0.70;;;;;;;4.49;100.00;100113.81;5070557;28;20204;-71
2023/12/05 01:59:52;;;;;;;0.70;0.70;;;;;;;4.51;100.00;100118.03;5070572;28;20216;-71
2023/12/05 02:02:20;;;;;;;1.00;1.00;;;;;;;4.58;100.00;100113.84;5070709;28;20241;-70
2023/12/05 02:04:49;;;;;;;1.37;1.33;;;;;;;4.62;100.00;100110.50;5069905;28;20208;-71
2023/12/05 02:07:16;;;;;;;1.03;1.03;;;;;;;4.69;100.00;100112.19;5070549;28;20200;-71
2023/12/05 02:09:45;;;;;;;0.63;0.63;;;;;;;4.67;100.00;100114.75;5070892;28;20195;-72
2023/12/05 02:12:11;;;;;;;0.70;0.70;;;;;;;4.72;100.00;100122.38;5070875;28;20203;-71
2023/12/05 02:14:38;;;;;;;0.60;0.60;;;;;;;4.77;100.00;100120.72;5070547;28;20249;-71
2023/12/05 02:17:11;;;;;;;0.60;0.60;;;;;;;4.78;100.00;100125.78;5070405;28;20203;-71
2023/12/05 02:20:06;;;;;;;0.67;0.67;;;;;;;4.75;100.00;100112.22;5069330;28;20220;-71
2023/12/05 02:23:06;;;;;;;0.60;0.60;;;;;;;4.69;100.00;100114.72;5070607;28;20236;-71
2023/12/05 02:25:47;;;;;;;0.80;0.80;;;;;;;4.67;100.00;100109.66;5071031;28;20269;-70
2023/12/05 02:28:16;;;;;;;0.83;0.70;;;;;;;4.70;100.00;100103.75;5070442;28;20253;-71
2023/12/05 02:30:43;;;;;;;0.57;0.57;;;;;;;4.63;100.00;100107.09;5070210;28;20198;-71
2023/12/05 02:33:10;;;;;;;0.80;0.80;;;;;;;4.63;100.00;100104.56;5070206;28;20206;-71
2023/12/05 02:35:38;;;;;;;0.90;0.90;;;;;;;4.67;100.00;100103.72;5069613;28;20250;-70
2023/12/05 02:38:10;;;;;;;0.50;0.50;;;;;;;4.70;100.00;100096.13;5069953;28;20200;-71
2023/12/05 02:40:42;;;;;;;1.17;1.17;;;;;;;4.69;100.00;100089.34;5070255;28;20261;-71
2023/12/05 02:43:13;;;;;;;1.07;1.07;;;;;;;4.61;100.00;100093.53;5070467;28;20200;-72
2023/12/05 02:45:44;;;;;;;0.50;0.50;;;;;;;4.51;100.00;100074.88;5070338;28;20200;-71
2023/12/05 02:48:12;;;;;;;0.60;0.60;;;;;;;4.62;100.00;100090.19;5071755;28;20200;-71
2023/12/05 02:50:39;;;;;;;0.90;0.90;;;;;;;4.66;100.00;100096.94;5070367;28;20203;-70
2023/12/05 02:53:05;;;;;;;0.40;0.40;;;;;;;4.62;100.00;100097.78;5070166;28;20195;-71
2023/12/05 02:55:32;;;;;;;1.27;1.27;;;;;;;4.60;100.00;100087.63;5070149;28;20253;-71
2023/12/05 02:57:59;;;;;;;0.77;0.77;;;;;;;4.65;100.00;100082.56;5070348;28;20200;-71
2023/12/05 03:00:25;;;;;;;0.57;0.57;;;;;;;4.68;100.00;100072.41;5070739;28;20711;-71
2023/12/05 03:02:53;;;;;;;0.60;0.60;;;;;;;4.68;100.00;100064.81;5069873;28;20200;-71
2023/12/05 03:05:20;;;;;;;0.50;0.50;;;;;;;4.69;100.00;100061.41;5069833;28;20742;-71
2023/12/05 03:07:47;;;;;;;0.50;0.50;;;;;;;4.65;100.00;100059.72;5069669;28;20204;-71
2023/12/05 03:10:14;;;;;;;0.60;0.60;;;;;;;4.66;100.00;100056.31;5073550;28;20234;-71
2023/12/05 03:12:40;;;;;;;0.80;0.80;;;;;;;4.59;100.00;100054.59;5075020;28;20200;-71
2023/12/05 03:15:08;;;;;;;0.40;0.40;;;;;;;4.63;100.00;100056.31;5073787;28;20250;-71
2023/12/05 03:17:35;;;;;;;0.80;0.80;;;;;;;4.58;100.00;100055.44;5072105;28;20265;-72
2023/12/05 03:20:04;;;;;;;0.73;0.73;;;;;;;4.58;100.00;100060.53;5073280;28;20687;-71
2023/12/05 03:22:31;;;;;;;0.77;0.77;;;;;;;4.58;100.00;100057.97;5075441;28;20203;-71
2023/12/05 03:24:57;;;;;;;0.90;0.90;;;;;;;4.56;100.00;100059.66;5073586;28;20249;-70
2023/12/05 03:27:24;;;;;;;1.07;1.07;;;;;;;4.56;100.00;100057.09;5073571;28;20254;-71
2023/12/05 03:29:51;;;;;;;1.00;1.00;;;;;;;4.55;100.00;100052.91;5073424;28;20192;-71
2023/12/05 03:32:17;;;;;;;0.80;0.80;;;;;;;4.64;100.00;100058.84;5074175;28;20200;-71
2023/12/05 03:34:44;;;;;;;1.23;1.23;;;;;;;4.69;100.00;100066.47;5073402;28;20638;-72
2023/12/05 03:37:12;;;;;;;0.50;0.50;;;;;;;4.75;100.00;100076.66;5070977;28;20196;-71
2023/12/05 03:39:39;;;;;;;0.70;0.70;;;;;;;4.72;100.00;100069.03;5072596;28;20220;-71
2023/12/05 03:42:06;;;;;;;0.73;0.73;;;;;;;4.70;100.00;100068.19;5073746;28;20192;-70
2023/12/05 03:44:33;;;;;;;0.80;0.80;;;;;;;4.69;100.00;100061.41;5072834;28;20230;-72
2023/12/05 03:46:59;;;;;;;0.80;0.80;;;;;;;4.64;100.00;100068.16;5073763;28;20192;-72
2023/12/05 03:49:26;;;;;;;0.67;0.67;;;;;;;4.60;100.00;100063.91;5074026;28;20846;-71
2023/12/05 03:51:53;;;;;;;0.73;0.73;;;;;;;4.49;100.00;100063.03;5074347;28;20199;-72
2023/12/05 03:54:21;;;;;;;0.70;0.70;;;;;;;4.51;100.00;100067.25;5072478;28;20206;-71
2023/12/05 03:56:47;;;;;;;0.70;0.70;;;;;;;4.42;100.00;100057.06;5073033;28;20200;-71
2023/12/05 03:59:14;;;;;;;0.60;0.60;;;;;;;4.55;100.00;100060.50;5072889;28;20251;-70
2023/12/05 04:01:41;;;;;;;0.90;0.90;;;;;;;4.60;100.00;100069.00;5072280;28;20273;-71
2023/12/05 04:04:07;;;;;;;1.00;1.00;;;;;;;4.60;100.00;100066.44;5073011;28;20199;-72
2023/12/05 04:06:34;;;;;;;0.87;0.87;;;;;;;4.70;100.00;100074.13;5072758;28;20257;-71
2023/12/05 04:09:01;;;;;;;0.60;0.60;;;;;;;4.70;100.00;100075.81;5072418;28;20637;-72
2023/12/05 04:11:31;;;;;;;0.57;0.57;;;;;;;4.73;100.00;100063.97;5072746;28;20663;-71
2023/12/05 04:13:58;;;;;;;1.53;1.53;;;;;;;4.76;100.00;100070.75;5073013;28;20710;-71
2023/12/05 04:16:25;;;;;;;0.73;0.73;;;;;;;4.79;100.00;100063.13;5072153;28;20291;-71
2023/12/05 04:18:51;;;;;;;0.70;0.70;;;;;;;4.82;100.00;100063.16;5072084;28;20254;-71
2023/12/05 04:21:18;;;;;;;2.97;0.63;;;;;;;4.84;100.00;100064.03;5070905;28;20212;-72
2023/12/05 04:23:45;;;;;;;1.10;0.83;;;;;;;4.88;100.00;100065.69;5072434;28;20254;-72
2023/12/05 04:26:15;;;;;;;1.70;0.90;;;;;;;4.86;100.00;100054.69;5071478;28;20249;-71
2023/12/05 04:28:43;;;;;;;0.83;0.83;;;;;;;4.93;100.00;100061.50;5072571;28;20200;-71
2023/12/05 04:31:10;;;;;;;1.33;1.33;;;;;;;4.97;100.00;100063.22;5072128;28;20200;-71
2023/12/05 04:33:36;;;;;;;2.63;1.17;;;;;;;4.94;100.00;100053.03;5072340;28;20223;-72
2023/12/05 04:36:03;;;;;;;0.90;0.90;;;;;;;5.01;100.00;100054.75;5072102;28;20200;-71
2023/12/05 04:38:30;;;;;;;1.10;1.10;;;;;;;5.04;100.00;100059.81;5071883;28;20613;-72
2023/12/05 04:40:57;;;;;;;2.33;0.80;;;;;;;5.06;100.00;100057.31;5072099;28;20212;-71
2023/12/05 04:43:23;;;;;;;2.73;1.23;;;;;;;5.01;100.00;100054.75;5072302;28;20225;-71
2023/12/05 04:45:51;;;;;;;1.27;1.27;;;;;;;4.94;100.00;100042.88;5072515;28;20626;-71
2023/12/05 04:48:18;;;;;;;1.60;1.50;;;;;;;5.06;100.00;100064.94;5071618;28;20744;-71
2023/12/05 04:50:45;;;;;;;1.67;1.63;;;;;;;4.96;100.00;100051.34;5068073;28;20734;-72
2023/12/05 04:53:11;;;;;;;0.97;0.97;;;;;;;5.08;100.00;100065.75;5071271;28;20204;-72
2023/12/05 04:55:38;;;;;;;0.70;0.70;;;;;;;5.05;100.00;100059.00;5071678;28;20204;-72
2023/12/05 04:58:05;;;;;;;1.33;1.33;;;;;;;4.97;100.00;100067.44;5072379;28;20656;-72
2023/12/05 05:00:32;;;;;;;0.80;0.80;;;;;;;4.95;100.00;100057.25;5071601;28;20286;-71
2023/12/05 05:03:00;;;;;;;0.83;0.83;;;;;;;4.92;100.00;100053.88;5072401;28;20192;-72
2023/12/05 05:05:27;;;;;;;1.03;1.03;;;;;;;4.80;100.00;100044.53;5071689;28;20208;-71
2023/12/05 05:07:54;;;;;;;0.60;0.60;;;;;;;4.73;100.00;100041.13;5071039;28;20204;-71
2023/12/05 05:10:20;;;;;;;1.53;1.00;;;;;;;4.66;100.00;100024.16;5071469;28;20246;-72
2023/12/05 05:12:47;;;;;;;1.07;1.07;;;;;;;4.56;100.00;100036.81;5071415;28;20246;-72
2023/12/05 05:15:14;;;;;;;1.40;1.30;;;;;;;4.53;100.00;100034.25;5071416;28;20352;-72
2023/12/05 05:17:41;;;;;;;1.40;1.40;;;;;;;4.47;100.00;100035.06;5070528;28;20623;-71
2023/12/05 05:20:10;;;;;;;0.83;0.83;;;;;;;4.43;100.00;100027.44;5067999;28;20273;-73
2023/12/05 05:22:37;;;;;;;1.53;1.50;;;;;;;4.39;100.00;100018.97;5072963;28;20241;-71
2023/12/05 05:25:04;;;;;;;1.17;1.17;;;;;;;4.35;100.00;100021.50;5071275;28;20668;-72
2023/12/05 05:27:30;;;;;;;1.53;1.53;;;;;;;4.30;100.00;100023.16;5070764;28;20229;-72
2023/12/05 05:29:57;;;;;;;2.13;2.13;;;;;;;4.34;100.00;100017.25;5071060;28;20196;-72
2023/12/05 05:32:24;;;;;;;0.90;0.90;;;;;;;4.21;100.00;100012.13;5070760;28;20204;-72
2023/12/05 05:34:51;;;;;;;2.40;1.67;;;;;;;4.23;100.00;100007.06;5070886;28;20196;-72
2023/12/05 05:37:19;;;;;;;1.77;1.67;;;;;;;4.21;100.00;100003.66;5071196;28;20250;-72
2023/12/05 05:39:47;;;;;;;1.23;1.23;;;;;;;4.33;100.00;100011.31;5071396;28;20254;-70
2023/12/05 05:42:14;;;;;;;1.00;1.00;;;;;;;4.36;100.00;100005.44;5070933;28;20220;-72
2023/12/05 05:44:40;;;;;;;0.70;0.70;;;;;;;4.37;100.00;100007.09;5072977;28;20200;-73
2023/12/05 05:47:07;;;;;;;0.40;0.40;;;;;;;4.42;100.00;100005.44;5071261;28;20210;-72
2023/12/05 05:49:34;;;;;;;1.20;1.10;;;;;;;4.41;100.00;100001.22;5071024;28;20196;-72
2023/12/05 05:52:01;;;;;;;0.77;0.77;;;;;;;4.48;100.00;100002.94;5069886;28;20606;-72
2023/12/05 05:54:29;;;;;;;0.87;0.87;;;;;;;4.53;100.00;100008.88;5071074;28;20196;-72
2023/12/05 05:56:55;;;;;;;0.60;0.60;;;;;;;4.50;100.00;100001.22;5070579;28;20191;-71
2023/12/05 05:59:22;;;;;;;0.93;0.93;;;;;;;4.42;100.00;99997.84;5071038;28;20617;-72
2023/12/05 06:01:49;;;;;;;2.00;1.90;;;;;;;4.45;100.00;100005.47;5070271;28;20675;-72
2023/12/05 06:04:16;;;;;;;1.30;1.30;;;;;;;4.46;100.00;100002.09;5070621;28;20253;-72
2023/12/05 06:06:42;;;;;;;0.90;0.90;;;;;;;4.42;100.00;100008.00;5070818;28;20199;-72
2023/12/05 06:09:09;;;;;;;1.37;1.27;;;;;;;4.50;100.00;99999.56;5073762;28;20621;-72
2023/12/05 06:11:37;;;;;;;0.80;0.80;;;;;;;4.48;100.00;99996.16;5072477;28;20200;-72
2023/12/05 06:14:04;;;;;;;0.90;0.90;;;;;;;4.19;100.00;99950.38;5073826;28;20196;-69
2023/12/05 06:16:31;;;;;;;0.87;0.87;;;;;;;4.54;100.00;100000.41;5078685;28;20200;-70
2023/12/05 06:18:57;;;;;;;1.10;1.10;;;;;;;4.49;100.00;100002.09;5071784;28;20204;-70
2023/12/05 06:21:24;;;;;;;1.67;1.57;;;;;;;4.57;100.00;100010.56;5071398;28;20277;-70
2023/12/05 06:23:51;;;;;;;1.00;1.00;;;;;;;4.69;100.00;100010.63;5071723;28;20672;-70
2023/12/05 06:26:19;;;;;;;1.37;1.37;;;;;;;4.72;100.00;100020.78;5071482;28;20291;-70
2023/12/05 06:28:47;;;;;;;2.33;0.93;;;;;;;4.80;100.00;100030.97;5071704;28;20675;-70
2023/12/05 06:31:13;;;;;;;1.57;1.57;;;;;;;4.90;100.00;100037.78;5070753;28;20211;-69
2023/12/05 06:33:40;;;;;;;0.60;0.60;;;;;;;4.99;100.00;100041.19;5067349;28;20257;-71
2023/12/05 06:36:08;;;;;;;3.37;1.17;;;;;;;5.05;100.00;100032.72;5069774;28;20204;-72
2023/12/05 06:38:34;;;;;;;2.57;1.40;;;;;;;5.11;100.00;100031.03;5069669;28;20258;-72
2023/12/05 06:41:01;;;;;;;1.63;1.63;;;;;;;5.20;100.00;100030.22;5070077;28;20212;-72
2023/12/05 06:43:28;;;;;;;0.60;0.60;;;;;;;5.23;100.00;100025.97;5068096;28;20641;-71
2023/12/05 06:45:56;;;;;;;0.63;0.63;;;;;;;5.30;100.00;100026.81;5070907;28;20196;-72
2023/12/05 06:48:23;;;;;;;2.17;1.50;;;;;;;5.34;100.00;100033.63;5073545;28;20204;-70
2023/12/05 06:50:50;;;;;;;1.70;1.67;;;;;;;5.39;100.00;100038.72;5069881;28;20696;-72
2023/12/05 06:53:16;;;;;;;1.27;1.27;;;;;;;5.43;100.00;100031.06;5072378;28;20705;-72
2023/12/05 06:55:43;;;;;;;1.10;1.10;;;;;;;5.47;100.00;100026.84;5072331;28;20199;-72
2023/12/05 06:58:10;;;;;;;3.03;1.67;;;;;;;5.49;100.00;100022.63;5071119;28;20297;-72
2023/12/05 07:00:37;;;;;;;2.03;1.97;;;;;;;5.45;100.00;100031.94;5072082;28;20300;-71
2023/12/05 07:03:05;;;;;;;1.97;1.87;;;;;;;5.50;100.00;100034.47;5073191;28;20200;-72
2023/12/05 07:05:31;;;;;;;1.90;1.90;;;;;;;5.48;100.00;100018.38;5070241;28;20270;-72
2023/12/05 07:08:00;;;;;;;1.30;1.30;;;;;;;5.57;100.00;100026.00;5071244;28;20261;-72
2023/12/05 07:10:27;;;;;;;6.03;1.57;;;;;;;5.65;100.00;100034.50;5072911;28;20208;-72
2023/12/05 07:12:54;;;;;;;3.20;1.87;;;;;;;5.68;100.00;100034.50;5069913;28;20203;-72
2023/12/05 07:15:21;;;;;;;0.80;0.80;;;;;;;5.71;100.00;100034.50;5072443;28;20234;-72
2023/12/05 07:17:48;;;;;;;1.87;1.77;;;;;;;5.64;100.00;100017.53;5070533;28;20257;-71
2023/12/05 07:20:16;;;;;;;1.27;0.70;;;;;;;5.74;100.00;100030.25;5070815;28;20257;-72
2023/12/05 07:22:43;;;;;;;1.30;1.30;;;;;;;5.77;100.00;100031.94;5071025;28;20741;-71
2023/12/05 07:25:10;;;;;;;3.33;1.60;;;;;;;5.82;100.00;100027.69;5070078;28;20627;-72
2023/12/05 07:27:37;;;;;;;1.87;1.77;;;;;;;5.83;100.00;100029.38;5073053;28;20208;-73
2023/12/05 07:30:04;;;;;;;7.37;2.90;;;;;;;5.84;100.00;100031.09;5071872;28;20280;-73
2023/12/05 07:32:31;;;;;;;4.40;1.23;;;;;;;5.83;100.00;100020.06;5073692;28;20200;-73
2023/12/05 07:34:57;;;;;;;3.87;1.57;;;;;;;5.83;100.00;100016.66;5073027;28;20200;-72
2023/12/05 07:37:26;;;;;;;2.10;2.00;;;;;;;5.78;100.00;100005.66;5073102;28;20199;-73
2023/12/05 07:39:53;;;;;;;1.83;1.73;;;;;;;5.90;100.00;100018.38;5077035;28;20256;-72
2023/12/05 07:42:19;;;;;;;1.57;1.47;;;;;;;5.92;100.00;100013.28;5076413;28;20603;-72
2023/12/05 07:44:46;;;;;;;1.63;1.63;;;;;;;5.93;100.00;100008.19;5076170;28;20200;-72
2023/12/05 07:47:13;;;;;;;1.93;1.83;;;;;;;5.95;100.00;100003.94;5070748;28;20200;-73
2023/12/05 07:49:43;;;;;;;2.17;1.50;;;;;;;5.95;100.00;99993.75;5071434;28;20634;-73
2023/12/05 07:52:10;;;;;;;1.07;1.07;;;;;;;5.94;100.00;99987.00;5071561;28;20208;-72
2023/12/05 07:54:38;;;;;;;2.47;2.27;;;;;;;5.95;100.00;99987.81;5071611;28;20254;-72
2023/12/05 07:57:05;;;;;;;1.53;1.00;;;;;;;5.94;100.00;99978.53;5071129;28;20254;-71
2023/12/05 07:59:32;;;;;;;1.90;1.53;;;;;;;5.88;100.00;99979.34;5071899;28;20273;-74
2023/12/05 08:01:59;;;;;;;1.93;1.77;;;;;;;5.93;100.00;99977.66;5071248;28;20283;-73
2023/12/05 08:04:25;;;;;;;0.73;0.73;;;;;;;5.96;100.00;99981.91;5073556;28;20724;-73
2023/12/05 08:06:52;;;;;;;0.83;0.83;;;;;;;6.02;100.00;99981.88;5071290;28;20204;-73
2023/12/05 08:09:19;;;;;;;1.13;1.00;;;;;;;6.07;100.00;99987.81;5070710;28;20200;-72
2023/12/05 08:11:47;;;;;;;1.43;1.30;;;;;;;6.15;100.00;99986.94;5072417;28;20208;-73
2023/12/05 08:14:13;;;;;;;1.27;1.17;;;;;;;6.22;100.00;99983.53;5071943;28;20258;-75
2023/12/05 08:16:42;;;;;;;2.03;1.80;;;;;;;6.24;100.00;99981.81;5072423;28;20253;-75
2023/12/05 08:19:09;;;;;;;2.37;1.87;;;;;;;6.19;100.00;99968.25;5071826;28;20235;-75
2023/12/05 08:21:35;;;;;;;1.03;1.03;;;;;;;6.33;100.00;99974.13;5071343;28;20650;-75
2023/12/05 08:24:02;;;;;;;1.10;1.10;;;;;;;6.43;100.00;99971.56;5071151;28;20203;-74
2023/12/05 08:26:29;;;;;;;2.43;1.77;;;;;;;6.46;100.00;99974.09;5072346;28;20204;-75
2023/12/05 08:28:58;;;;;;;1.43;1.27;;;;;;;6.40;100.00;99967.31;5072683;28;20680;-72
2023/12/05 08:31:25;;;;;;;1.43;1.43;;;;;;;6.44;100.00;99963.06;5070691;28;20287;-72
2023/12/05 08:33:51;;;;;;;3.10;1.67;;;;;;;6.54;100.00;99964.72;5066442;28;20203;-70
2023/12/05 08:36:18;;;;;;;2.83;1.53;;;;;;;6.56;100.00;99970.66;5068289;28;20212;-75
2023/12/05 08:38:45;;;;;;;3.77;3.00;;;;;;;6.49;100.00;99967.28;5071487;28;20254;-72
2023/12/05 08:41:18;;;;;;;6.10;1.40;;;;;;;6.56;100.00;99966.38;5072637;28;20220;-74
2023/12/05 08:43:45;;;;;;;1.53;1.47;;;;;;;6.59;100.00;99963.00;5071454;28;20219;-72
2023/12/05 08:46:13;;;;;;;3.27;1.50;;;;;;;6.65;100.00;99961.28;5069082;28;20737;-73
2023/12/05 08:48:40;;;;;;;5.00;2.27;;;;;;;6.75;100.00;99954.41;5068800;28;20257;-72
2023/12/05 08:51:07;;;;;;;2.57;2.37;;;;;;;6.78;100.00;99954.41;5070509;28;20212;-71
2023/12/05 08:53:34;;;;;;;1.40;1.40;;;;;;;6.82;100.00;99956.06;5069824;28;20215;-73
2023/12/05 08:56:04;;;;;;;1.50;1.50;;;;;;;6.88;100.00;99950.09;5070042;28;20203;-74
2023/12/05 08:58:30;;;;;;;3.47;2.07;;;;;;;6.88;100.00;99945.84;5071648;28;20196;-72
2023/12/05 09:00:57;;;;;;;3.43;1.97;;;;;;;6.97;100.00;99945.78;5071222;28;20227;-73
2023/12/05 09:03:25;;;;;;;2.40;2.10;;;;;;;7.02;100.00;99940.63;5071346;28;20258;-72
2023/12/05 09:05:52;;;;;;;2.20;2.03;;;;;;;7.09;100.00;99932.94;5072463;28;20680;-73
2023/12/05 09:08:18;;;;;;;1.70;1.20;;;;;;;7.16;100.00;99932.03;5071682;28;20204;-72
2023/12/05 09:10:45;;;;;;;1.73;1.73;;;;;;;7.18;100.00;99925.22;5072450;28;20257;-73
2023/12/05 09:13:12;;;;;;;2.20;2.20;;;;;;;7.14;100.00;99928.63;5072316;28;20192;-73
2023/12/05 09:15:39;;;;;;;3.83;2.43;;;;;;;7.14;100.00;99933.72;5071866;28;20680;-73
2023/12/05 09:18:06;;;;;;;1.40;1.30;;;;;;;7.18;100.00;99930.31;5071931;28;20228;-73
2023/12/05 09:20:34;;;;;;;2.47;2.23;;;;;;;7.22;100.00;99921.78;5071374;28;20579;-73
2023/12/05 09:23:01;;;;;;;2.70;2.60;;;;;;;7.26;100.00;99920.06;5071510;28;20219;-74
2023/12/05 09:25:28;;;;;;;4.23;1.87;;;;;;;7.33;100.00;99919.16;5070810;28;20231;-73
2023/12/05 09:27:54;;;;;;;3.83;1.50;;;;;;;7.39;100.00;99922.50;5071505;28;20624;-73
2023/12/05 09:30:21;;;;;;;1.80;1.70;;;;;;;7.45;100.00;99915.63;5070515;28;20429;-74
2023/12/05 09:32:48;;;;;;;1.30;1.20;;;;;;;7.53;100.00;99911.31;5070702;28;20200;-74
2023/12/05 09:35:14;;;;;;;2.73;2.00;;;;;;;7.55;100.00;99891.72;5069944;28;20262;-73
2023/12/05 09:37:42;;;;;;;2.57;1.77;;;;;;;7.62;100.00;99901.00;5070352;28;20656;-74
2023/12/05 09:40:10;;;;;;;1.87;1.70;;;;;;;7.63;100.00;99893.31;5068521;28;20749;-73
2023/12/05 09:42:38;;;;;;;3.63;2.33;;;;;;;7.67;100.00;99889.88;5065852;28;20228;-73
2023/12/05 09:45:10;;;;;;;3.83;1.67;;;;;;;7.67;100.00;99884.78;5067323;28;20672;-74
2023/12/05 09:47:39;;;;;;;1.60;1.50;;;;;;;7.62;100.00;99875.50;5060269;28;20386;-74
2023/12/05 09:50:07;;;;;;;1.90;1.80;;;;;;;7.55;100.00;99869.63;5061674;28;20208;-74
2023/12/05 09:52:35;;;;;;;4.80;2.23;;;;;;;7.60;100.00;99867.00;5063965;28;20200;-74
2023/12/05 09:55:04;;;;;;;1.70;1.70;;;;;;;7.49;100.00;99853.53;5069500;28;20265;-74
2023/12/05 09:57:30;;;;;;;1.77;1.67;;;;;;;7.52;100.00;99858.59;5067472;28;20200;-74
2023/12/05 09:59:57;;;;;;;3.27;2.70;;;;;;;7.62;100.00;99855.09;5070463;28;20211;-73
2023/12/05 10:02:25;;;;;;;2.27;2.17;;;;;;;7.62;100.00;99835.53;5065638;28;20692;-73
2023/12/05 10:05:00;;;;;;;3.10;2.40;;;;;;;7.69;100.00;99841.41;5069702;28;20630;-74
2023/12/05 10:07:28;;;;;;;6.70;1.93;;;;;;;7.65;100.00;99829.53;5068609;28;20215;-74
2023/12/05 10:09:56;;;;;;;3.90;1.37;;;;;;;7.79;100.00;99822.53;5068450;28;20587;-73
2023/12/05 10:12:24;;;;;;;1.97;1.93;;;;;;;7.85;100.00;99818.22;5068445;28;20204;-74
2023/12/05 10:14:52;;;;;;;8.50;1.97;;;;;;;7.91;100.00;99822.41;5071985;28;20200;-74
2023/12/05 10:17:20;;;;;;;1.57;1.50;;;;;;;7.94;100.00;99822.38;5069770;28;20208;-74
2023/12/05 10:19:47;;;;;;;7.83;2.00;;;;;;;7.95;100.00;99808.72;5068967;28;20721;-74
2023/12/05 10:22:15;;;;;;;2.47;2.37;;;;;;;8.04;100.00;99808.63;5069444;28;20265;-74
2023/12/05 10:24:43;;;;;;;2.50;2.30;;;;;;;8.03;100.00;99800.97;5069383;28;20233;-74
2023/12/05 10:27:10;;;;;;;3.20;1.80;;;;;;;8.08;100.00;99792.38;5067627;28;20223;-73
2023/12/05 10:29:43;;;;;;;1.73;1.63;;;;;;;8.02;100.00;99789.06;5068616;28;20200;-75
2023/12/05 10:32:12;;;;;;;2.40;2.20;;;;;;;8.02;100.00;99789.91;5069367;28;20259;-74
2023/12/05 10:34:49;;;;;;;1.73;1.73;;;;;;;8.05;100.00;99792.41;5070008;28;20266;-74
2023/12/05 10:37:21;;;;;;;3.10;2.97;;;;;;;8.00;100.00;99786.53;5070019;28;20199;-74
2023/12/05 10:39:49;;;;;;;3.90;1.77;;;;;;;8.01;100.00;99783.13;5069563;28;20200;-74
2023/12/05 10:42:16;;;;;;;3.43;3.13;;;;;;;7.92;100.00;99773.03;5062566;28;20745;-73
2023/12/05 10:44:44;;;;;;;3.10;2.70;;;;;;;7.90;100.00;99779.88;5061952;28;20203;-73
2023/12/05 10:47:12;;;;;;;2.70;2.50;;;;;;;7.88;100.00;99777.31;5066560;28;20212;-71
2023/12/05 10:49:41;;;;;;;3.07;2.80;;;;;;;7.82;100.00;99768.91;5066997;28;20208;-71
2023/12/05 10:52:09;;;;;;;1.87;1.77;;;;;;;7.85;100.00;99762.06;5067014;28;20199;-74
2023/12/05 10:54:35;;;;;;;1.00;1.00;;;;;;;7.90;100.00;99759.44;5067846;28;20261;-73
2023/12/05 10:57:08;;;;;;;1.70;1.60;;;;;;;7.96;100.00;99745.75;5066995;28;20549;-72
2023/12/05 10:59:36;;;;;;;1.60;1.50;;;;;;;8.06;100.00;99749.88;5067393;28;20261;-72
2023/12/05 11:02:11;;;;;;;1.97;1.87;;;;;;;8.11;100.00;99748.91;5066804;28;20243;-74
2023/12/05 11:04:39;;;;;;;2.23;1.90;;;;;;;8.04;100.00;99747.34;5067433;28;20200;-72
2023/12/05 11:07:05;;;;;;;1.47;1.47;;;;;;;8.05;100.00;99743.91;5068386;28;20204;-73
2023/12/05 11:09:32;;;;;;;1.70;1.60;;;;;;;8.03;100.00;99747.34;5067582;28;20257;-73
2023/12/05 11:12:00;;;;;;;3.20;2.90;;;;;;;8.05;100.00;99743.91;5068643;28;20321;-72
2023/12/05 11:14:30;;;;;;;2.23;2.03;;;;;;;8.04;100.00;99731.19;5069183;28;20281;-72
2023/12/05 11:17:00;;;;;;;4.40;2.13;;;;;;;8.09;100.00;99745.56;5069454;28;20649;-72
2023/12/05 11:19:43;;;;;;;3.43;2.10;;;;;;;8.11;100.00;99738.72;5068073;28;20208;-72
2023/12/05 11:22:22;;;;;;;2.47;2.37;;;;;;;8.14;100.00;99728.44;5069242;28;20247;-72
2023/12/05 11:25:24;;;;;;;4.30;2.10;;;;;;;8.18;100.00;99719.03;5066244;28;20254;-72
2023/12/05 11:28:04;;;;;;;4.87;2.40;;;;;;;8.21;100.00;99730.03;5066928;28;20231;-72
2023/12/05 11:30:52;;;;;;;5.83;1.77;;;;;;;8.20;100.00;99718.16;5071635;28;20698;-72
2023/12/05 11:33:33;;;;;;;2.33;1.73;;;;;;;8.20;100.00;99718.16;5070324;28;20200;-72